createdAt,value
2018-09-10T00:01:47.776Z,7.13
2018-09-10T00:04:20.149Z,6.20
2018-09-10T00:06:51.493Z,8.83
2018-09-10T00:09:22.845Z,8.83
2018-09-10T00:11:54.090Z,8.30
2018-09-10T00:14:25.365Z,7.27
2018-09-10T00:16:56.626Z,12.13
2018-09-10T00:19:27.993Z,10.00
2018-09-10T00:21:59.246Z,7.87
2018-09-10T00:24:30.652Z,7.00
2018-09-10T00:27:01.973Z,6.27
2018-09-10T00:29:33.295Z,9.10
2018-09-10T00:32:04.658Z,7.97
2018-09-10T00:34:35.906Z,5.90
2018-09-10T00:37:07.177Z,6.27
2018-09-10T00:39:38.514Z,6.90
2018-09-10T00:42:09.766Z,7.00
2018-09-10T00:44:41.121Z,7.50
2018-09-10T00:47:12.462Z,6.30
2018-09-10T00:49:43.741Z,5.83
2018-09-10T00:52:15.001Z,6.50
2018-09-10T00:54:46.305Z,7.97
2018-09-10T00:57:17.634Z,6.50
2018-09-10T00:59:49.923Z,9.43
2018-09-10T01:02:21.234Z,7.17
2018-09-10T01:04:52.526Z,11.20
2018-09-10T01:07:23.842Z,12.57
2018-09-10T01:09:55.126Z,8.80
2018-09-10T01:12:26.393Z,7.97
2018-09-10T01:14:57.674Z,6.80
2018-09-10T01:17:29.042Z,7.17
2018-09-10T01:20:00.322Z,6.87
2018-09-10T01:22:31.583Z,6.10
2018-09-10T01:25:02.870Z,6.60
2018-09-10T01:27:34.117Z,6.93
2018-09-10T01:30:05.510Z,6.77
2018-09-10T01:32:36.765Z,7.07
2018-09-10T01:35:08.051Z,7.27
2018-09-10T01:37:39.306Z,7.50
2018-09-10T01:40:10.677Z,8.03
2018-09-10T01:42:41.937Z,7.10
2018-09-10T01:45:13.198Z,7.20
2018-09-10T01:47:44.451Z,7.40
2018-09-10T01:50:15.749Z,6.77
2018-09-10T01:52:47.012Z,6.97
2018-09-10T01:55:18.279Z,7.13
2018-09-10T01:57:49.551Z,8.17
2018-09-10T02:00:20.839Z,6.87
2018-09-10T02:02:52.200Z,6.60
2018-09-10T02:05:23.469Z,8.47
2018-09-10T02:07:54.747Z,8.60
2018-09-10T02:10:26.017Z,7.20
2018-09-10T02:12:57.364Z,8.73
2018-09-10T02:15:28.669Z,9.43
2018-09-10T02:17:59.937Z,7.50
2018-09-10T02:20:31.190Z,9.83
2018-09-10T02:23:02.453Z,9.00
2018-09-10T02:25:33.819Z,8.40
2018-09-10T02:28:05.073Z,7.53
2018-09-10T02:30:36.356Z,7.77
2018-09-10T02:33:07.982Z,9.33
2018-09-10T02:35:39.279Z,7.67
2018-09-10T02:38:10.539Z,7.83
2018-09-10T02:40:41.808Z,6.93
2018-09-10T02:43:13.061Z,7.10
2018-09-10T02:45:44.346Z,7.10
2018-09-10T02:48:15.805Z,7.50
2018-09-10T02:50:47.075Z,7.00
2018-09-10T02:53:18.338Z,7.00
2018-09-10T02:55:49.640Z,7.50
2018-09-10T02:58:20.917Z,6.93
2018-09-10T03:00:52.199Z,8.33
2018-09-10T03:03:23.454Z,8.03
2018-09-10T03:05:54.735Z,6.93
2018-09-10T03:08:26.053Z,7.87
2018-09-10T03:10:57.332Z,8.00
2018-09-10T03:13:28.606Z,7.70
2018-09-10T03:15:59.997Z,7.27
2018-09-10T03:18:31.268Z,8.10
2018-09-10T03:21:02.531Z,8.10
2018-09-10T03:23:33.797Z,8.17
2018-09-10T03:26:05.085Z,8.90
2018-09-10T03:28:36.342Z,6.70
2018-09-10T03:31:07.621Z,6.90
2018-09-10T03:33:38.984Z,8.53
2018-09-10T03:36:10.165Z,6.43
2018-09-10T03:38:41.422Z,6.60
2018-09-10T03:41:12.740Z,7.67
2018-09-10T03:43:44.012Z,10.30
2018-09-10T03:46:15.324Z,8.37
2018-09-10T03:48:46.583Z,8.17
2018-09-10T03:51:17.858Z,8.03
2018-09-10T03:53:49.105Z,9.30
2018-09-10T03:56:20.417Z,8.50
2018-09-10T03:58:51.693Z,7.83
2018-09-10T04:01:22.962Z,7.90
2018-09-10T04:03:54.259Z,9.23
2018-09-10T04:06:25.533Z,7.90
2018-09-10T04:08:56.798Z,8.40
2018-09-10T04:11:28.071Z,7.33
2018-09-10T04:13:59.325Z,8.47
2018-09-10T04:16:30.625Z,7.27
2018-09-10T04:19:01.938Z,9.27
2018-09-10T04:21:33.251Z,8.90
2018-09-10T04:24:04.517Z,8.27
2018-09-10T04:26:35.830Z,9.10
2018-09-10T04:29:07.078Z,7.93
2018-09-10T04:31:38.378Z,8.30
2018-09-10T04:34:09.708Z,8.40
2018-09-10T04:36:40.987Z,7.33
2018-09-10T04:39:12.253Z,11.97
2018-09-10T04:41:43.539Z,9.57
2018-09-10T04:44:14.897Z,9.20
2018-09-10T04:46:46.174Z,10.53
2018-09-10T04:49:17.435Z,14.03
2018-09-10T04:51:48.714Z,13.10
2018-09-10T04:54:19.961Z,10.57
2018-09-10T04:56:51.245Z,8.00
2018-09-10T04:59:22.525Z,8.03
2018-09-10T05:01:53.791Z,7.50
2018-09-10T05:04:25.128Z,7.50
2018-09-10T05:06:56.437Z,13.47
2018-09-10T05:09:27.685Z,9.23
2018-09-10T05:11:58.972Z,9.77
2018-09-10T05:14:30.229Z,8.73
2018-09-10T05:17:02.168Z,10.23
2018-09-10T05:19:34.021Z,24.57
2018-09-10T05:22:05.825Z,10.23
2018-09-10T05:24:37.023Z,9.80
2018-09-10T05:27:08.329Z,11.77
2018-09-10T05:29:39.713Z,12.13
2018-09-10T05:32:11.000Z,14.03
2018-09-10T05:34:42.285Z,10.73
2018-09-10T05:37:13.558Z,14.53
2018-09-10T05:39:44.825Z,11.43
2018-09-10T05:42:16.105Z,18.07
2018-09-10T05:44:47.369Z,17.73
2018-09-10T05:47:18.655Z,24.23
2018-09-10T05:49:49.929Z,14.20
2018-09-10T05:52:21.210Z,13.97
2018-09-10T05:54:52.478Z,11.30
2018-09-10T05:57:23.819Z,13.07
2018-09-10T05:59:55.108Z,12.83
2018-09-10T06:02:26.393Z,13.00
2018-09-10T06:04:57.725Z,16.63
2018-09-10T06:07:29.001Z,14.13
2018-09-10T06:10:00.278Z,12.33
2018-09-10T06:12:31.551Z,11.13
2018-09-10T06:15:02.809Z,11.87
2018-09-10T06:17:34.087Z,12.27
2018-09-10T06:20:05.354Z,11.30
2018-09-10T06:22:36.627Z,9.67
2018-09-10T06:25:07.905Z,10.33
2018-09-10T06:27:39.203Z,9.37
2018-09-10T06:30:10.510Z,9.10
2018-09-10T06:32:41.797Z,9.17
2018-09-10T06:35:13.071Z,13.30
2018-09-10T06:37:44.350Z,13.27
2018-09-10T06:40:15.601Z,11.50
2018-09-10T06:42:46.878Z,9.40
2018-09-10T06:45:18.178Z,9.57
2018-09-10T06:47:49.601Z,10.00
2018-09-10T06:50:20.835Z,10.67
2018-09-10T06:52:52.143Z,14.23
2018-09-10T06:55:23.405Z,10.00
2018-09-10T06:57:54.688Z,10.10
2018-09-10T07:00:25.980Z,11.73
2018-09-10T07:02:57.237Z,11.77
2018-09-10T07:05:28.580Z,11.93
2018-09-10T07:08:00.114Z,8.80
2018-09-10T07:10:31.378Z,9.83
2018-09-10T07:13:02.709Z,8.93
2018-09-10T07:15:33.981Z,9.77
2018-09-10T07:18:05.276Z,11.07
2018-09-10T07:20:36.537Z,10.73
2018-09-10T07:23:07.851Z,9.40
2018-09-10T07:25:39.139Z,9.33
2018-09-10T07:28:10.405Z,9.63
2018-09-10T07:30:41.754Z,8.83
2018-09-10T07:33:13.061Z,8.37
2018-09-10T07:35:44.318Z,9.50
2018-09-10T07:38:15.585Z,9.97
2018-09-10T07:40:47.041Z,9.57
2018-09-10T07:43:18.324Z,8.30
2018-09-10T07:45:49.698Z,8.50
2018-09-10T07:48:21.005Z,7.90
2018-09-10T07:50:52.333Z,8.53
2018-09-10T07:53:23.611Z,13.27
2018-09-10T07:55:54.886Z,8.07
2018-09-10T07:58:26.154Z,9.10
2018-09-10T08:00:57.405Z,8.17
2018-09-10T08:03:28.777Z,6.30
2018-09-10T08:06:00.055Z,6.93
2018-09-10T08:08:31.369Z,6.97
2018-09-10T08:11:02.709Z,7.13
2018-09-10T08:13:33.981Z,7.65
2018-09-10T08:16:05.243Z,7.57
2018-09-10T08:18:36.698Z,7.70
2018-09-10T08:21:07.999Z,9.10
2018-09-10T08:23:39.359Z,5.87
2018-09-10T08:26:10.678Z,9.03
2018-09-10T08:28:42.054Z,9.43
2018-09-10T08:31:13.326Z,5.63
2018-09-10T08:33:44.610Z,7.00
2018-09-10T08:36:15.874Z,6.05
2018-09-10T08:38:47.230Z,6.83
2018-09-10T08:41:18.477Z,6.17
2018-09-10T08:43:49.745Z,6.15
2018-09-10T08:46:21.004Z,5.15
2018-09-10T08:48:52.304Z,10.50
2018-09-10T08:51:23.658Z,41.95
2018-09-10T08:53:55.011Z,8.85
2018-09-10T08:56:26.309Z,7.95
2018-09-10T08:58:57.563Z,6.33
2018-09-10T09:01:29.086Z,10.85
2018-09-10T09:04:00.862Z,5.33
2018-09-10T09:06:32.697Z,4.90
2018-09-10T09:09:04.471Z,5.17
2018-09-10T09:11:35.790Z,5.50
2018-09-10T09:14:07.085Z,5.08
2018-09-10T09:16:38.357Z,8.33
2018-09-10T09:19:09.745Z,6.72
2018-09-10T09:21:41.036Z,7.35
2018-09-10T09:24:12.344Z,4.95
2018-09-10T09:26:43.605Z,4.97
2018-09-10T09:29:14.885Z,4.50
2018-09-10T09:31:46.173Z,4.75
2018-09-10T09:34:17.514Z,6.80
2018-09-10T09:36:54.646Z,6.53
2018-09-10T09:39:31.798Z,5.35
2018-09-10T09:42:08.930Z,4.50
2018-09-10T09:44:46.032Z,3.83
2018-09-10T09:47:17.419Z,3.80
2018-09-10T09:49:48.869Z,4.20
2018-09-10T09:52:20.184Z,4.00
2018-09-10T09:54:51.560Z,4.20
2018-09-10T09:57:23.008Z,3.50
2018-09-10T09:59:54.345Z,3.47
2018-09-10T10:02:31.142Z,3.50
2018-09-10T10:05:02.457Z,3.62
2018-09-10T10:07:33.717Z,5.42
2018-09-10T10:10:05.087Z,3.42
2018-09-10T10:12:36.318Z,4.45
2018-09-10T10:15:07.659Z,3.52
2018-09-10T10:17:38.930Z,2.40
2018-09-10T10:20:10.203Z,3.20
2018-09-10T10:22:41.479Z,2.77
2018-09-10T10:25:12.859Z,2.67
2018-09-10T10:27:44.198Z,3.00
2018-09-10T10:30:15.471Z,3.83
2018-09-10T10:32:46.790Z,2.90
2018-09-10T10:35:18.117Z,3.05
2018-09-10T10:37:49.386Z,2.90
2018-09-10T10:40:20.758Z,3.45
2018-09-10T10:42:52.028Z,3.55
2018-09-10T10:45:23.318Z,2.50
2018-09-10T10:47:54.590Z,2.65
2018-09-10T10:50:25.903Z,2.40
2018-09-10T10:52:57.275Z,4.12
2018-09-10T10:55:28.569Z,2.87
2018-09-10T10:57:59.815Z,3.37
2018-09-10T11:00:31.103Z,3.35
2018-09-10T11:03:02.388Z,4.83
2018-09-10T11:05:33.659Z,2.00
2018-09-10T11:08:04.921Z,2.77
2018-09-10T11:10:36.192Z,2.92
2018-09-10T11:13:07.762Z,2.98
2018-09-10T11:15:39.027Z,2.98
2018-09-10T11:18:10.291Z,2.00
2018-09-10T11:20:41.551Z,2.05
2018-09-10T11:23:12.800Z,2.75
2018-09-10T11:25:44.085Z,3.42
2018-09-10T11:28:15.350Z,2.55
2018-09-10T11:30:46.642Z,2.50
2018-09-10T11:33:17.889Z,5.28
2018-09-10T11:35:49.182Z,3.12
2018-09-10T11:38:20.540Z,2.40
2018-09-10T11:40:51.818Z,3.40
2018-09-10T11:43:23.117Z,2.45
2018-09-10T11:45:54.470Z,2.50
2018-09-10T11:48:25.727Z,2.45
2018-09-10T11:50:57.006Z,3.05
2018-09-10T11:53:28.263Z,2.30
2018-09-10T11:55:59.546Z,2.42
2018-09-10T11:58:30.865Z,2.75
2018-09-10T12:01:02.144Z,3.58
2018-09-10T12:03:33.504Z,4.17
2018-09-10T12:06:04.782Z,2.62
2018-09-10T12:08:36.045Z,3.55
2018-09-10T12:11:07.328Z,2.47
2018-09-10T12:13:38.630Z,2.42
2018-09-10T12:16:09.930Z,2.60
2018-09-10T12:18:41.186Z,2.77
2018-09-10T12:21:12.482Z,2.72
2018-09-10T12:23:43.771Z,3.98
2018-09-10T12:26:15.058Z,3.30
2018-09-10T12:28:46.441Z,2.95
2018-09-10T12:31:17.838Z,3.95
2018-09-10T12:33:49.189Z,3.87
2018-09-10T12:36:20.586Z,3.95
2018-09-10T12:38:51.971Z,4.15
2018-09-10T12:41:23.392Z,3.15
2018-09-10T12:43:54.690Z,3.00
2018-09-10T12:46:26.080Z,4.22
2018-09-10T12:48:57.387Z,4.95
2018-09-10T12:51:28.814Z,6.15
2018-09-10T12:54:00.161Z,4.00
2018-09-10T12:56:31.571Z,2.80
2018-09-10T12:59:02.945Z,3.37
2018-09-10T13:01:34.375Z,3.00
2018-09-10T13:04:05.808Z,3.22
2018-09-10T13:06:37.134Z,3.25
2018-09-10T13:09:08.499Z,4.85
2018-09-10T13:11:39.908Z,3.92
2018-09-10T13:14:11.273Z,3.12
2018-09-10T13:16:42.685Z,3.98
2018-09-10T13:19:14.216Z,3.52
2018-09-10T13:21:45.704Z,2.95
2018-09-10T13:24:17.095Z,2.95
2018-09-10T13:26:48.614Z,8.50
2018-09-10T13:29:19.947Z,3.12
2018-09-10T13:31:51.892Z,3.42
2018-09-10T13:34:23.291Z,3.95
2018-09-10T13:36:54.700Z,4.37
2018-09-10T13:39:26.111Z,3.37
2018-09-10T13:41:57.508Z,3.55
2018-09-10T13:44:28.914Z,3.08
2018-09-10T13:47:00.299Z,3.02
2018-09-10T13:49:31.749Z,3.00
2018-09-10T13:52:03.169Z,3.58
2018-09-10T13:54:34.567Z,3.15
2018-09-10T13:57:05.974Z,3.15
2018-09-10T13:59:37.421Z,3.47
2018-09-10T14:02:08.790Z,3.22
2018-09-10T14:04:40.177Z,3.10
2018-09-10T14:07:11.608Z,4.30
2018-09-10T14:09:42.989Z,4.05
2018-09-10T14:12:14.422Z,5.10
2018-09-10T14:14:45.849Z,4.12
2018-09-10T14:17:17.252Z,3.75
2018-09-10T14:19:48.649Z,5.17
2018-09-10T14:22:20.116Z,4.17
2018-09-10T14:24:51.551Z,3.77
2018-09-10T14:27:22.942Z,3.22
2018-09-10T14:29:54.268Z,6.97
2018-09-10T14:32:25.651Z,4.37
2018-09-10T14:34:57.105Z,4.20
2018-09-10T14:37:28.507Z,5.17
2018-09-10T14:39:59.882Z,3.98
2018-09-10T14:42:31.245Z,3.55
2018-09-10T14:45:02.591Z,3.22
2018-09-10T14:47:34.004Z,3.27
2018-09-10T14:50:05.359Z,3.83
2018-09-10T14:52:36.806Z,4.53
2018-09-10T14:55:08.197Z,5.15
2018-09-10T14:57:39.622Z,3.40
2018-09-10T15:00:16.566Z,2.87
2018-09-10T15:02:47.947Z,3.42
2018-09-10T15:05:19.561Z,4.60
2018-09-10T15:07:51.911Z,3.83
2018-09-10T15:10:23.266Z,3.30
2018-09-10T15:12:54.586Z,3.67
2018-09-10T15:15:25.955Z,3.77
2018-09-10T15:17:57.351Z,3.70
2018-09-10T15:20:28.776Z,5.55
2018-09-10T15:23:00.249Z,3.20
2018-09-10T15:25:31.611Z,3.33
2018-09-10T15:28:02.927Z,3.45
2018-09-10T15:30:34.226Z,5.10
2018-09-10T15:33:05.572Z,3.50
2018-09-10T15:35:36.964Z,4.08
2018-09-10T15:38:08.393Z,3.37
2018-09-10T15:40:39.840Z,3.37
2018-09-10T15:43:11.196Z,4.90
2018-09-10T15:45:42.604Z,3.67
2018-09-10T15:48:14.043Z,3.37
2018-09-10T15:50:45.388Z,4.05
2018-09-10T15:53:16.813Z,5.12
2018-09-10T15:55:48.212Z,4.47
2018-09-10T15:58:19.571Z,3.92
2018-09-10T16:00:50.958Z,3.75
2018-09-10T16:03:22.304Z,3.87
2018-09-10T16:05:53.582Z,3.50
2018-09-10T16:08:24.868Z,3.47
2018-09-10T16:10:56.201Z,4.17
2018-09-10T16:13:27.478Z,3.95
2018-09-10T16:15:58.738Z,4.37
2018-09-10T16:18:30.073Z,3.20
2018-09-10T16:21:01.337Z,3.27
2018-09-10T16:23:32.728Z,4.92
2018-09-10T16:26:04.055Z,3.40
2018-09-10T16:28:35.420Z,3.60
2018-09-10T16:31:06.681Z,4.50
2018-09-10T16:33:37.968Z,3.50
2018-09-10T16:36:09.250Z,5.00
2018-09-10T16:38:40.639Z,3.77
2018-09-10T16:41:12.014Z,8.20
2018-09-10T16:43:43.222Z,4.00
2018-09-10T16:46:14.541Z,4.85
2018-09-10T16:48:45.988Z,4.85
2018-09-10T16:51:17.165Z,6.90
2018-09-10T16:53:48.484Z,4.47
2018-09-10T16:56:19.879Z,7.22
2018-09-10T16:58:51.211Z,4.47
2018-09-10T17:01:22.523Z,5.10
2018-09-10T17:03:53.819Z,3.85
2018-09-10T17:06:25.082Z,5.97
2018-09-10T17:08:56.404Z,4.45
2018-09-10T17:11:27.725Z,4.15
2018-09-10T17:13:59.077Z,5.00
2018-09-10T17:16:30.341Z,4.90
2018-09-10T17:19:01.648Z,5.20
2018-09-10T17:21:32.940Z,7.47
2018-09-10T17:24:04.310Z,4.67
2018-09-10T17:26:35.621Z,7.47
2018-09-10T17:29:06.972Z,5.33
2018-09-10T17:31:38.262Z,4.92
2018-09-10T17:34:09.616Z,4.37
2018-09-10T17:36:40.897Z,5.40
2018-09-10T17:39:12.289Z,5.55
2018-09-10T17:41:43.602Z,7.37
2018-09-10T17:44:14.976Z,4.65
2018-09-10T17:46:46.323Z,5.60
2018-09-10T17:49:17.669Z,5.65
2018-09-10T17:51:48.926Z,4.78
2018-09-10T17:54:20.251Z,6.20
2018-09-10T17:56:51.582Z,5.33
2018-09-10T17:59:22.938Z,5.08
2018-09-10T18:01:54.211Z,5.03
2018-09-10T18:04:25.604Z,5.85
2018-09-10T18:06:57.000Z,7.58
2018-09-10T18:09:28.460Z,5.12
2018-09-10T18:11:59.851Z,5.83
2018-09-10T18:14:31.250Z,8.90
2018-09-10T18:17:02.635Z,7.65
2018-09-10T18:19:34.067Z,5.95
2018-09-10T18:22:05.498Z,5.80
2018-09-10T18:24:36.935Z,6.28
2018-09-10T18:27:08.291Z,5.80
2018-09-10T18:29:39.718Z,5.83
2018-09-10T18:32:11.116Z,6.70
2018-09-10T18:34:42.533Z,5.97
2018-09-10T18:37:13.930Z,6.25
2018-09-10T18:39:45.331Z,7.28
2018-09-10T18:42:16.707Z,7.58
2018-09-10T18:44:48.109Z,7.05
2018-09-10T18:47:19.481Z,6.58
2018-09-10T18:49:50.923Z,4.83
2018-09-10T18:52:22.272Z,8.65
2018-09-10T18:54:53.629Z,5.42
2018-09-10T18:57:24.977Z,6.60
2018-09-10T18:59:56.421Z,5.47
2018-09-10T19:02:27.889Z,5.97
2018-09-10T19:04:59.320Z,6.17
2018-09-10T19:07:30.738Z,9.10
2018-09-10T19:10:02.130Z,5.72
2018-09-10T19:12:33.524Z,6.00
2018-09-10T19:15:04.903Z,5.58
2018-09-10T19:17:36.277Z,7.03
2018-09-10T19:20:07.720Z,6.65
2018-09-10T19:22:39.085Z,9.95
2018-09-10T19:25:10.513Z,5.95
2018-09-10T19:27:41.900Z,6.80
2018-09-10T19:30:13.349Z,9.38
2018-09-10T19:32:44.692Z,9.30
2018-09-10T19:35:16.117Z,9.98
2018-09-10T19:37:47.571Z,8.38
2018-09-10T19:40:19.020Z,7.00
2018-09-10T19:42:50.481Z,8.07
2018-09-10T19:45:21.914Z,8.17
2018-09-10T19:47:53.342Z,8.70
2018-09-10T19:50:24.740Z,8.67
2018-09-10T19:52:56.139Z,7.12
2018-09-10T19:55:27.520Z,7.85
2018-09-10T19:57:58.988Z,6.75
2018-09-10T20:00:30.525Z,9.87
2018-09-10T20:03:02.201Z,8.67
2018-09-10T20:05:33.641Z,8.23
2018-09-10T20:08:05.095Z,8.70
2018-09-10T20:10:38.217Z,7.80
2018-09-10T20:13:09.779Z,7.90
2018-09-10T20:15:41.566Z,8.60
2018-09-10T20:18:13.052Z,8.97
2018-09-10T20:20:44.487Z,10.13
2018-09-10T20:23:15.963Z,10.73
2018-09-10T20:25:47.716Z,10.53
2018-09-10T20:28:19.577Z,11.43
2018-09-10T20:30:51.551Z,10.53
2018-09-10T20:33:23.057Z,14.23
2018-09-10T20:35:54.491Z,13.78
2018-09-10T20:38:26.028Z,14.57
2018-09-10T20:40:57.638Z,13.20
2018-09-10T20:43:29.033Z,12.50
2018-09-10T20:46:00.648Z,14.73
2018-09-10T20:48:32.027Z,14.73
2018-09-10T20:51:03.353Z,12.67
2018-09-10T20:53:34.659Z,12.33
2018-09-10T20:56:06.115Z,11.43
2018-09-10T20:58:37.496Z,15.87
2018-09-10T21:01:08.962Z,10.50
2018-09-10T21:03:40.798Z,11.07
2018-09-10T21:06:12.343Z,9.60
2018-09-10T21:08:43.691Z,9.43
2018-09-10T21:11:15.459Z,10.70
2018-09-10T21:13:46.844Z,13.13
2018-09-10T21:16:18.218Z,12.13
2018-09-10T21:18:49.561Z,13.77
2018-09-10T21:21:20.963Z,11.67
2018-09-10T21:23:52.311Z,12.00
2018-09-10T21:26:23.747Z,11.93
2018-09-10T21:28:55.013Z,10.73
2018-09-10T21:31:26.275Z,11.48
2018-09-10T21:33:57.589Z,12.55
2018-09-10T21:36:28.951Z,11.47
2018-09-10T21:39:00.289Z,10.83
2018-09-10T21:41:31.625Z,10.50
2018-09-10T21:44:02.963Z,10.17
2018-09-10T21:46:34.281Z,9.40
2018-09-10T21:49:05.625Z,13.57
2018-09-10T21:51:36.978Z,12.40
2018-09-10T21:54:08.365Z,10.93
2018-09-10T21:56:39.731Z,13.43
2018-09-10T21:59:11.127Z,10.87
2018-09-10T22:01:43.059Z,10.43
2018-09-10T22:04:14.421Z,10.37
2018-09-10T22:06:46.456Z,9.37
2018-09-10T22:09:17.779Z,11.90
2018-09-10T22:11:54.895Z,10.53
2018-09-10T22:14:26.236Z,10.97
2018-09-10T22:16:57.611Z,11.00
2018-09-10T22:19:28.958Z,14.37
2018-09-10T22:22:00.328Z,11.03
2018-09-10T22:24:31.767Z,11.33
2018-09-10T22:27:03.114Z,12.80
2018-09-10T22:29:34.471Z,11.37
2018-09-10T22:32:14.167Z,10.10
2018-09-10T22:34:45.585Z,12.47
2018-09-10T22:37:16.983Z,8.60
2018-09-10T22:39:48.403Z,9.87
2018-09-10T22:42:19.867Z,9.90
2018-09-10T22:44:51.248Z,9.53
2018-09-10T22:47:22.659Z,9.90
2018-09-10T22:49:54.007Z,15.70
2018-09-10T22:52:25.397Z,10.10
2018-09-10T22:54:56.764Z,9.33
2018-09-10T22:57:28.069Z,9.47
2018-09-10T22:59:59.353Z,10.47
2018-09-10T23:02:30.682Z,9.70
2018-09-10T23:05:02.090Z,11.17
2018-09-10T23:07:33.472Z,9.13
2018-09-10T23:10:04.753Z,7.97
2018-09-10T23:12:36.092Z,8.90
2018-09-10T23:15:07.334Z,9.87
2018-09-10T23:17:38.611Z,10.03
2018-09-10T23:20:09.899Z,9.07
2018-09-10T23:22:41.169Z,9.43
2018-09-10T23:25:12.495Z,9.40
2018-09-10T23:27:43.845Z,11.23
2018-09-10T23:30:15.219Z,11.63
2018-09-10T23:32:46.507Z,9.57
2018-09-10T23:35:17.766Z,12.43
2018-09-10T23:37:49.774Z,15.90
2018-09-10T23:40:21.317Z,14.57
2018-09-10T23:42:52.668Z,16.70
2018-09-10T23:45:23.926Z,13.83
2018-09-10T23:47:55.261Z,15.33
2018-09-10T23:50:26.511Z,13.00
2018-09-10T23:52:57.787Z,13.30
2018-09-10T23:55:29.061Z,13.20
2018-09-10T23:58:00.334Z,16.50
